Time;durP1;ratioP1;P1;durP2;ratioP2;P2;SDS_P1;SDS_P2;PMS_P1;PMS_P2;Temp;Humidity;BMP_temperature;BMP_pressure;BME280_temperature;BME280_humidity;BME280_pressure;Samples;Min_cycle;Max_cycle;Signal;HPM_P1;HPM_P2
2023/03/19 00:00:30;;;;;;;4.78;3.28;;;12.40;96.70;;;;;;5098651;28;20063;-71
2023/03/19 00:02:58;;;;;;;5.15;3.05;;;12.50;96.70;;;;;;5075578;28;20127;-71
2023/03/19 00:05:26;;;;;;;7.65;3.08;;;12.50;96.70;;;;;;5103021;28;20508;-71
2023/03/19 00:07:56;;;;;;;4.47;2.78;;;12.50;96.70;;;;;;5059168;28;20052;-71
2023/03/19 00:10:24;;;;;;;3.60;2.22;;;12.40;96.70;;;;;;5074198;28;20516;-71
2023/03/19 00:12:52;;;;;;;4.22;2.67;;;12.30;96.70;;;;;;5044643;28;20067;-72
2023/03/19 00:15:20;;;;;;;6.30;3.17;;;12.40;96.70;;;;;;5058333;28;20044;-71
2023/03/19 00:17:48;;;;;;;5.82;3.20;;;12.30;96.70;;;;;;5076575;28;20040;-71
2023/03/19 00:20:18;;;;;;;6.85;3.05;;;12.40;96.70;;;;;;5079615;28;20091;-72
2023/03/19 00:22:46;;;;;;;7.32;3.45;;;12.40;96.70;;;;;;5046050;28;20151;-71
2023/03/19 00:25:16;;;;;;;6.93;3.78;;;12.40;96.70;;;;;;5058113;28;20056;-72
2023/03/19 00:27:45;;;;;;;6.10;3.65;;;12.40;96.70;;;;;;5053584;28;20155;-72
2023/03/19 00:30:13;;;;;;;7.10;3.58;;;12.30;96.70;;;;;;5059198;28;20060;-72
2023/03/19 00:32:42;;;;;;;6.07;4.35;;;12.20;96.70;;;;;;5053447;28;20059;-71
2023/03/19 00:35:10;;;;;;;7.63;4.03;;;12.20;96.70;;;;;;5057079;28;20445;-71
2023/03/19 00:37:39;;;;;;;6.38;3.72;;;12.20;96.70;;;;;;5043613;28;20048;-71
2023/03/19 00:40:09;;;;;;;5.57;4.40;;;12.10;96.70;;;;;;5057572;28;20152;-71
2023/03/19 00:42:39;;;;;;;5.63;4.40;;;12.10;96.70;;;;;;5063180;28;20044;-71
2023/03/19 00:45:08;;;;;;;10.52;3.78;;;12.20;96.70;;;;;;5054706;28;20333;-72
2023/03/19 00:47:36;;;;;;;8.90;5.18;;;12.20;96.70;;;;;;5040757;28;20525;-71
2023/03/19 00:50:05;;;;;;;8.95;4.20;;;12.20;96.70;;;;;;5053583;28;20045;-71
2023/03/19 00:52:34;;;;;;;6.85;4.28;;;12.20;96.70;;;;;;5055213;28;20055;-72
2023/03/19 00:55:02;;;;;;;7.47;4.50;;;12.20;96.70;;;;;;5056124;28;20036;-70
2023/03/19 00:57:30;;;;;;;6.97;4.63;;;12.20;96.70;;;;;;5054941;28;20074;-70
2023/03/19 00:59:59;;;;;;;6.85;4.18;;;12.30;96.70;;;;;;5050935;28;20239;-71
2023/03/19 01:02:27;;;;;;;8.77;4.50;;;12.30;96.70;;;;;;5061557;28;20049;-71
2023/03/19 01:04:55;;;;;;;5.93;4.18;;;12.20;96.70;;;;;;5043369;28;20048;-71
2023/03/19 01:07:23;;;;;;;7.32;4.53;;;12.20;96.70;;;;;;5057845;28;20041;-71
2023/03/19 01:09:51;;;;;;;4.13;3.72;;;12.20;96.70;;;;;;5057251;28;20036;-71
2023/03/19 01:12:20;;;;;;;6.65;3.70;;;12.20;96.70;;;;;;5036351;28;20643;-71
2023/03/19 01:14:47;;;;;;;8.05;4.45;;;12.20;96.70;;;;;;5058746;28;20041;-71
2023/03/19 01:17:17;;;;;;;6.80;4.32;;;12.20;96.70;;;;;;5055555;28;20044;-71
2023/03/19 01:19:45;;;;;;;7.40;4.25;;;12.20;96.70;;;;;;5055474;28;20065;-71
2023/03/19 01:22:15;;;;;;;10.65;4.32;;;12.30;96.70;;;;;;5042393;28;20537;-71
2023/03/19 01:24:48;;;;;;;6.03;4.25;;;12.30;96.70;;;;;;5052500;28;20053;-71
2023/03/19 01:27:16;;;;;;;6.82;3.85;;;12.40;96.70;;;;;;5041362;28;20131;-71
2023/03/19 01:29:44;;;;;;;7.00;3.88;;;12.40;96.70;;;;;;5053551;28;20045;-71
2023/03/19 01:32:20;;;;;;;8.13;4.20;;;12.40;96.70;;;;;;5058178;28;20144;-71
2023/03/19 01:35:14;;;;;;;6.70;3.85;;;12.30;96.70;;;;;;5048262;28;20060;-71
2023/03/19 01:37:42;;;;;;;6.72;3.72;;;12.30;96.70;;;;;;5047979;28;20055;-72
2023/03/19 01:40:13;;;;;;;5.97;3.53;;;12.30;96.70;;;;;;5042369;28;20567;-71
2023/03/19 01:42:53;;;;;;;7.60;4.13;;;12.20;96.70;;;;;;5060008;28;20056;-71
2023/03/19 01:45:46;;;;;;;7.65;3.45;;;12.20;96.70;;;;;;5018159;28;20048;-71
2023/03/19 01:48:47;;;;;;;4.90;3.53;;;12.30;96.70;;;;;;5029688;28;20103;-71
2023/03/19 01:51:23;;;;;;;5.35;3.28;;;12.30;96.70;;;;;;5052850;28;20040;-71
2023/03/19 01:53:59;;;;;;;6.05;3.33;;;12.30;96.70;;;;;;5055717;28;20059;-71
2023/03/19 01:56:57;;;;;;;7.63;4.07;;;12.40;96.70;;;;;;5004976;28;20407;-71
2023/03/19 01:59:47;;;;;;;5.55;3.10;;;12.40;96.70;;;;;;5014477;28;20553;-71
2023/03/19 02:02:37;;;;;;;6.22;3.20;;;12.40;96.70;;;;;;5000838;28;20103;-71
2023/03/19 02:05:24;;;;;;;4.45;2.90;;;12.30;96.70;;;;;;4999617;28;20049;-71
2023/03/19 02:08:15;;;;;;;5.40;4.18;;;12.30;96.70;;;;;;4976561;28;20055;-71
2023/03/19 02:10:47;;;;;;;6.82;3.55;;;12.40;96.70;;;;;;4977821;28;20054;-71
2023/03/19 02:13:15;;;;;;;4.50;3.70;;;12.30;96.70;;;;;;4977000;28;20062;-71
2023/03/19 02:15:43;;;;;;;5.13;3.25;;;12.30;96.70;;;;;;4972008;28;20069;-71
2023/03/19 02:18:13;;;;;;;5.07;3.63;;;12.20;96.70;;;;;;4973034;28;20103;-71
2023/03/19 02:20:50;;;;;;;5.40;4.00;;;12.20;96.70;;;;;;4970157;28;20420;-71
2023/03/19 02:23:27;;;;;;;6.47;3.50;;;12.30;96.70;;;;;;4958437;28;20798;-71
2023/03/19 02:26:11;;;;;;;7.90;4.30;;;12.30;96.70;;;;;;4963586;28;20093;-71
2023/03/19 02:28:42;;;;;;;6.93;3.30;;;12.30;96.70;;;;;;4977889;28;20105;-71
2023/03/19 02:31:13;;;;;;;3.83;3.30;;;12.30;96.70;;;;;;4976248;28;20046;-71
2023/03/19 02:33:42;;;;;;;9.80;4.30;;;12.30;96.70;;;;;;4981928;28;20057;-71
2023/03/19 02:36:14;;;;;;;6.68;3.92;;;12.30;96.70;;;;;;5031608;28;21545;-71
2023/03/19 02:38:45;;;;;;;7.38;3.75;;;12.30;96.70;;;;;;5026733;28;20061;-71
2023/03/19 02:41:15;;;;;;;5.45;4.43;;;12.20;96.70;;;;;;5015601;28;20049;-71
2023/03/19 02:43:43;;;;;;;6.95;4.03;;;12.20;96.70;;;;;;5004244;28;20045;-71
2023/03/19 02:46:12;;;;;;;6.70;4.40;;;12.20;96.70;;;;;;5043463;28;20056;-72
2023/03/19 02:48:41;;;;;;;4.43;3.80;;;12.30;96.70;;;;;;5049902;28;20584;-71
2023/03/19 02:51:09;;;;;;;5.68;3.97;;;12.30;96.70;;;;;;5053915;28;20123;-71
2023/03/19 02:53:37;;;;;;;5.70;4.22;;;12.30;96.70;;;;;;5057403;28;20075;-71
2023/03/19 02:56:06;;;;;;;6.95;4.55;;;12.40;96.70;;;;;;5058295;28;20156;-71
2023/03/19 02:58:36;;;;;;;5.93;4.35;;;12.40;96.70;;;;;;5061715;28;20140;-71
2023/03/19 03:01:05;;;;;;;5.25;4.63;;;12.30;96.70;;;;;;5056172;28;20040;-71
2023/03/19 03:03:33;;;;;;;7.32;4.82;;;12.30;96.70;;;;;;5042965;28;20044;-71
2023/03/19 03:06:01;;;;;;;6.32;4.47;;;12.30;96.70;;;;;;5044793;28;20041;-71
2023/03/19 03:08:30;;;;;;;7.38;5.07;;;12.20;96.70;;;;;;5058158;28;20049;-70
2023/03/19 03:10:58;;;;;;;6.03;4.88;;;12.20;96.70;;;;;;5056841;28;20505;-71
2023/03/19 03:13:27;;;;;;;7.35;4.65;;;12.30;96.70;;;;;;5041726;28;20170;-71
2023/03/19 03:15:57;;;;;;;7.82;4.60;;;12.30;96.70;;;;;;5056605;28;20151;-71
2023/03/19 03:18:26;;;;;;;6.72;3.97;;;12.30;96.70;;;;;;5040217;28;20049;-71
2023/03/19 03:20:54;;;;;;;6.65;3.90;;;12.30;96.70;;;;;;5055667;28;20036;-70
2023/03/19 03:23:22;;;;;;;5.95;3.95;;;12.40;96.70;;;;;;5057635;28;20063;-70
2023/03/19 03:25:51;;;;;;;7.75;4.05;;;12.30;96.70;;;;;;5077046;28;20124;-71
2023/03/19 03:28:19;;;;;;;6.80;4.10;;;12.30;96.70;;;;;;5059626;28;20133;-71
2023/03/19 03:30:48;;;;;;;6.80;4.50;;;12.40;96.70;;;;;;5060631;28;20060;-71
2023/03/19 03:33:17;;;;;;;7.43;4.03;;;12.40;96.70;;;;;;5077388;28;20048;-70
2023/03/19 03:35:46;;;;;;;5.35;3.40;;;12.40;96.70;;;;;;5057121;28;20168;-71
2023/03/19 03:38:14;;;;;;;8.60;3.60;;;12.40;96.70;;;;;;5054786;28;20043;-71
2023/03/19 03:40:42;;;;;;;7.57;3.28;;;12.40;96.70;;;;;;5061570;28;20040;-71
2023/03/19 03:43:10;;;;;;;7.30;3.88;;;12.40;96.70;;;;;;5061040;28;20106;-71
2023/03/19 03:45:39;;;;;;;7.82;3.55;;;12.40;96.70;;;;;;5056508;28;20421;-71
2023/03/19 03:48:07;;;;;;;6.40;3.28;;;12.40;96.70;;;;;;5061441;28;20036;-71
2023/03/19 03:50:37;;;;;;;4.65;3.17;;;12.40;96.70;;;;;;5063106;28;20105;-70
2023/03/19 03:53:10;;;;;;;5.63;3.10;;;12.40;96.70;;;;;;5063912;28;20044;-71
2023/03/19 03:55:39;;;;;;;5.18;3.35;;;12.50;96.70;;;;;;5065540;28;20048;-71
2023/03/19 03:58:07;;;;;;;8.18;3.50;;;12.50;96.70;;;;;;5084054;28;20047;-71
2023/03/19 04:00:36;;;;;;;7.18;3.65;;;12.40;96.70;;;;;;5067019;28;20145;-71
2023/03/19 04:03:04;;;;;;;4.70;3.50;;;12.30;96.70;;;;;;5064282;28;20331;-71
2023/03/19 04:05:32;;;;;;;4.57;3.33;;;12.30;96.70;;;;;;5057759;28;20128;-71
2023/03/19 04:08:02;;;;;;;4.90;3.78;;;12.30;96.70;;;;;;5062801;28;20153;-71
2023/03/19 04:10:31;;;;;;;4.30;3.35;;;12.40;96.70;;;;;;5063751;28;20496;-71
2023/03/19 04:13:00;;;;;;;5.68;3.58;;;12.40;96.70;;;;;;5077991;28;20067;-71
2023/03/19 04:15:30;;;;;;;4.93;3.33;;;12.40;96.70;;;;;;5066769;28;20052;-71
2023/03/19 04:18:00;;;;;;;5.45;3.17;;;12.40;96.70;;;;;;5079140;28;20078;-70
2023/03/19 04:20:28;;;;;;;6.47;3.45;;;12.40;96.70;;;;;;5078146;28;20134;-70
2023/03/19 04:22:56;;;;;;;4.85;3.50;;;12.40;96.70;;;;;;5060378;28;20048;-71
2023/03/19 04:25:26;;;;;;;7.75;3.97;;;12.40;96.70;;;;;;5080191;28;20488;-70
2023/03/19 04:27:56;;;;;;;3.38;2.78;;;12.40;96.70;;;;;;5081654;28;20084;-70
2023/03/19 04:30:27;;;;;;;7.97;3.63;;;12.40;96.70;;;;;;5066000;28;20048;-70
2023/03/19 04:32:55;;;;;;;4.35;3.42;;;12.30;96.70;;;;;;5063308;28;20063;-70
2023/03/19 04:35:24;;;;;;;4.90;3.35;;;12.30;96.70;;;;;;5047304;28;20052;-70
2023/03/19 04:37:52;;;;;;;5.22;2.75;;;12.40;96.70;;;;;;5082391;28;20046;-70
2023/03/19 04:40:21;;;;;;;5.07;3.10;;;12.40;96.70;;;;;;5063727;28;20032;-71
2023/03/19 04:42:52;;;;;;;4.65;3.10;;;12.40;96.70;;;;;;5058315;28;20493;-70
2023/03/19 04:45:34;;;;;;;5.47;3.63;;;12.40;96.70;;;;;;5063313;28;20109;-71
2023/03/19 04:48:02;;;;;;;6.15;3.40;;;12.40;96.70;;;;;;5079623;28;20741;-70
2023/03/19 04:50:34;;;;;;;5.82;3.75;;;12.40;96.70;;;;;;5063525;28;20047;-70
2023/03/19 04:53:03;;;;;;;6.45;4.18;;;12.40;96.70;;;;;;5061291;28;20600;-70
2023/03/19 04:55:31;;;;;;;4.90;3.30;;;12.40;96.70;;;;;;5045892;28;20044;-71
2023/03/19 04:58:14;;;;;;;6.72;3.92;;;12.40;96.70;;;;;;5058448;28;20074;-70
2023/03/19 05:00:45;;;;;;;6.22;3.47;;;12.40;96.70;;;;;;5058597;28;20697;-70
2023/03/19 05:03:18;;;;;;;5.65;3.75;;;12.40;96.70;;;;;;5046046;28;20048;-71
2023/03/19 05:05:47;;;;;;;6.50;3.60;;;12.40;96.70;;;;;;5047899;28;20406;-71
2023/03/19 05:08:16;;;;;;;6.47;3.80;;;12.40;96.70;;;;;;5060938;28;20772;-71
2023/03/19 05:10:44;;;;;;;7.07;3.70;;;12.40;96.70;;;;;;5062678;28;20043;-71
2023/03/19 05:13:15;;;;;;;6.78;3.55;;;12.50;96.70;;;;;;5055322;28;20461;-70
2023/03/19 05:15:51;;;;;;;9.38;4.35;;;12.50;96.70;;;;;;5063981;28;20605;-71
2023/03/19 05:18:20;;;;;;;7.18;4.10;;;12.40;96.70;;;;;;5063083;28;20584;-71
2023/03/19 05:20:48;;;;;;;6.85;3.80;;;12.40;96.70;;;;;;5056366;28;20120;-71
2023/03/19 05:23:20;;;;;;;5.15;3.17;;;12.40;96.70;;;;;;5061673;28;20519;-70
2023/03/19 05:26:05;;;;;;;6.88;3.63;;;12.40;96.70;;;;;;5050639;28;20044;-70
2023/03/19 05:29:02;;;;;;;9.45;3.28;;;12.50;96.70;;;;;;5021027;28;20189;-70
2023/03/19 05:31:46;;;;;;;6.40;3.67;;;12.50;96.70;;;;;;5004652;28;20041;-70
2023/03/19 05:34:15;;;;;;;7.18;3.40;;;12.50;96.70;;;;;;5018643;28;20068;-71
2023/03/19 05:36:43;;;;;;;5.80;3.10;;;12.50;96.70;;;;;;5005371;28;20454;-71
2023/03/19 05:39:16;;;;;;;8.48;3.47;;;12.50;96.70;;;;;;5016838;28;20045;-71
2023/03/19 05:41:45;;;;;;;4.47;3.22;;;12.50;96.70;;;;;;5015748;28;20101;-71
2023/03/19 05:44:20;;;;;;;5.90;3.03;;;12.50;96.70;;;;;;5002059;28;20052;-71
2023/03/19 05:46:59;;;;;;;8.95;3.20;;;12.50;96.70;;;;;;5016089;28;20045;-71
2023/03/19 05:49:31;;;;;;;4.95;2.80;;;12.60;96.70;;;;;;5021238;28;20045;-70
2023/03/19 05:52:00;;;;;;;3.85;2.67;;;12.60;96.70;;;;;;5012609;28;20140;-71
2023/03/19 05:54:29;;;;;;;3.15;2.50;;;12.60;96.70;;;;;;5017270;28;20055;-71
2023/03/19 05:57:11;;;;;;;3.97;2.92;;;12.60;96.70;;;;;;5015182;28;20048;-71
2023/03/19 06:00:06;;;;;;;3.47;2.50;;;12.60;96.70;;;;;;5008614;28;20045;-71
2023/03/19 06:02:34;;;;;;;3.90;2.30;;;12.60;96.70;;;;;;5021518;28;20146;-71
2023/03/19 06:05:16;;;;;;;6.30;2.28;;;12.60;96.70;;;;;;5011512;28;20048;-71
2023/03/19 06:07:45;;;;;;;4.40;2.35;;;12.60;96.70;;;;;;5053086;28;20165;-71
2023/03/19 06:10:23;;;;;;;5.13;2.67;;;12.60;96.70;;;;;;5061710;28;20098;-71
2023/03/19 06:12:54;;;;;;;5.05;2.60;;;12.50;96.70;;;;;;5041547;28;20043;-71
2023/03/19 06:15:50;;;;;;;4.25;2.63;;;12.50;96.70;;;;;;5069188;28;20045;-71
2023/03/19 06:18:23;;;;;;;4.90;2.63;;;12.50;96.70;;;;;;5058684;28;20063;-71
2023/03/19 06:20:52;;;;;;;5.20;2.40;;;12.50;96.70;;;;;;5049314;28;20044;-71
2023/03/19 06:23:20;;;;;;;6.00;2.42;;;12.50;96.70;;;;;;5055692;28;20036;-72
2023/03/19 06:25:48;;;;;;;3.97;2.47;;;12.60;96.70;;;;;;5057577;28;20482;-71
2023/03/19 06:28:17;;;;;;;5.18;3.20;;;12.60;96.70;;;;;;5063852;28;20505;-71
2023/03/19 06:30:46;;;;;;;5.63;2.80;;;12.60;96.70;;;;;;5044299;28;20071;-71
2023/03/19 06:33:41;;;;;;;5.38;2.33;;;12.60;96.70;;;;;;5039561;28;20052;-71
2023/03/19 06:36:10;;;;;;;4.80;2.78;;;12.60;96.70;;;;;;5065696;28;20143;-71
2023/03/19 06:38:38;;;;;;;5.40;2.88;;;12.60;96.70;;;;;;5056316;28;20167;-71
2023/03/19 06:41:06;;;;;;;6.22;3.63;;;12.60;96.70;;;;;;5054962;28;20032;-71
2023/03/19 06:43:36;;;;;;;4.88;2.70;;;12.60;96.70;;;;;;5080757;28;20051;-71
2023/03/19 06:46:05;;;;;;;5.88;2.70;;;12.60;96.70;;;;;;5070710;28;20201;-71
2023/03/19 06:48:37;;;;;;;6.00;2.90;;;12.60;96.70;;;;;;5080228;28;20482;-71
2023/03/19 06:51:10;;;;;;;4.85;3.20;;;12.70;96.70;;;;;;5050395;28;20277;-71
2023/03/19 06:53:38;;;;;;;5.88;3.60;;;12.70;96.70;;;;;;5072650;28;20036;-71
2023/03/19 06:56:09;;;;;;;4.22;3.72;;;12.60;96.70;;;;;;5074987;28;20040;-70
2023/03/19 06:58:37;;;;;;;5.85;3.75;;;12.60;96.70;;;;;;5078400;28;20047;-72
2023/03/19 07:01:06;;;;;;;7.45;3.83;;;12.60;96.70;;;;;;5059155;28;20070;-71
2023/03/19 07:03:34;;;;;;;6.90;4.05;;;12.60;96.70;;;;;;5076998;28;20085;-71
2023/03/19 07:06:02;;;;;;;5.53;3.70;;;12.60;96.70;;;;;;5075615;28;20631;-71
2023/03/19 07:08:32;;;;;;;8.85;3.97;;;12.60;96.70;;;;;;5056797;28;20622;-71
2023/03/19 07:11:04;;;;;;;7.25;4.47;;;12.60;96.70;;;;;;5062486;28;20028;-71
2023/03/19 07:13:32;;;;;;;6.45;4.22;;;12.60;96.70;;;;;;5064900;28;20044;-71
2023/03/19 07:16:00;;;;;;;7.45;4.60;;;12.60;96.70;;;;;;5066073;28;20040;-71
2023/03/19 07:18:29;;;;;;;8.65;5.53;;;12.60;96.70;;;;;;5065975;28;20606;-71
2023/03/19 07:20:57;;;;;;;7.05;5.07;;;12.60;96.70;;;;;;5081038;28;20047;-71
2023/03/19 07:23:25;;;;;;;8.10;4.82;;;12.60;96.70;;;;;;5079510;28;20044;-72
2023/03/19 07:25:54;;;;;;;7.25;4.65;;;12.60;96.70;;;;;;5061134;28;20053;-71
2023/03/19 07:28:23;;;;;;;7.72;4.63;;;12.60;96.70;;;;;;5082849;28;20075;-72
2023/03/19 07:30:52;;;;;;;8.07;4.60;;;12.60;96.70;;;;;;5061835;28;20126;-71
2023/03/19 07:33:21;;;;;;;9.27;5.53;;;12.60;96.70;;;;;;5062694;28;20036;-72
2023/03/19 07:35:49;;;;;;;6.93;4.40;;;12.60;96.70;;;;;;5084656;28;20040;-71
2023/03/19 07:38:17;;;;;;;7.75;5.13;;;12.60;96.70;;;;;;5082546;28;20043;-71
2023/03/19 07:40:45;;;;;;;7.40;4.65;;;12.60;96.70;;;;;;5063739;28;20152;-72
2023/03/19 07:43:30;;;;;;;7.20;4.65;;;12.60;96.70;;;;;;5065051;28;20391;-71
2023/03/19 07:45:58;;;;;;;7.65;4.70;;;12.60;96.70;;;;;;5077810;28;20044;-71
2023/03/19 07:48:27;;;;;;;8.30;4.28;;;12.60;96.70;;;;;;5084513;28;20040;-71
2023/03/19 07:50:55;;;;;;;9.02;4.75;;;12.60;96.70;;;;;;5074986;28;20129;-72
2023/03/19 07:53:23;;;;;;;9.63;4.60;;;12.60;96.70;;;;;;5060363;28;20167;-71
2023/03/19 07:55:51;;;;;;;6.60;5.20;;;12.60;96.70;;;;;;5086399;28;20044;-71
2023/03/19 07:58:19;;;;;;;7.85;5.00;;;12.60;96.70;;;;;;5060533;28;20686;-71
2023/03/19 08:00:49;;;;;;;7.00;4.53;;;12.60;96.70;;;;;;5066761;28;20122;-72
2023/03/19 08:03:17;;;;;;;8.40;5.35;;;12.70;96.70;;;;;;5083460;28;20043;-71
2023/03/19 08:05:48;;;;;;;7.43;5.72;;;12.70;96.70;;;;;;5078890;28;20051;-72
2023/03/19 08:08:17;;;;;;;8.27;5.97;;;12.70;96.70;;;;;;5079035;28;20077;-72
2023/03/19 08:10:47;;;;;;;7.35;5.40;;;12.70;96.70;;;;;;5082891;28;20060;-72
2023/03/19 08:13:15;;;;;;;7.85;5.22;;;12.70;96.70;;;;;;5059438;28;20117;-71
2023/03/19 08:15:43;;;;;;;7.57;5.03;;;12.70;96.70;;;;;;5084505;28;20065;-71
2023/03/19 08:18:13;;;;;;;10.27;6.28;;;12.70;96.70;;;;;;5082866;28;20036;-72
2023/03/19 08:20:41;;;;;;;7.80;5.65;;;12.70;96.70;;;;;;5082150;28;20040;-72
2023/03/19 08:23:09;;;;;;;9.43;5.35;;;12.70;96.70;;;;;;5081604;28;20055;-71
2023/03/19 08:25:37;;;;;;;7.80;5.28;;;12.70;96.70;;;;;;5048815;28;20036;-72
2023/03/19 08:28:06;;;;;;;8.13;4.60;;;12.80;96.70;;;;;;5062144;28;20141;-71
2023/03/19 08:30:34;;;;;;;6.32;4.72;;;12.80;96.70;;;;;;5062940;28;20094;-72
2023/03/19 08:33:03;;;;;;;7.63;4.20;;;12.90;96.70;;;;;;5082140;28;20104;-72
2023/03/19 08:35:33;;;;;;;9.98;5.32;;;12.90;96.70;;;;;;5079643;28;20056;-71
2023/03/19 08:38:01;;;;;;;7.25;4.55;;;12.90;96.70;;;;;;5079339;28;20055;-71
2023/03/19 08:40:29;;;;;;;8.65;4.40;;;12.90;96.70;;;;;;5077712;28;20048;-71
2023/03/19 08:42:58;;;;;;;6.10;4.30;;;12.90;96.70;;;;;;5079672;28;20089;-71
2023/03/19 08:45:26;;;;;;;7.45;4.10;;;12.90;96.70;;;;;;5065094;28;20473;-71
2023/03/19 08:47:56;;;;;;;6.10;4.07;;;13.00;96.70;;;;;;5082222;28;20039;-71
2023/03/19 08:50:25;;;;;;;7.38;4.10;;;13.00;96.70;;;;;;5077159;28;20037;-71
2023/03/19 08:52:55;;;;;;;5.72;3.60;;;13.00;96.70;;;;;;5063459;28;20435;-71
2023/03/19 08:55:23;;;;;;;5.18;4.30;;;13.00;96.70;;;;;;5077236;28;20102;-71
2023/03/19 08:57:51;;;;;;;7.95;4.93;;;13.00;96.70;;;;;;5081483;28;20043;-72
2023/03/19 09:00:20;;;;;;;6.85;4.43;;;13.00;96.70;;;;;;5074474;28;20113;-72
2023/03/19 09:02:48;;;;;;;7.05;4.72;;;13.10;96.70;;;;;;5073688;28;20032;-72
2023/03/19 09:05:21;;;;;;;9.80;5.80;;;13.10;96.70;;;;;;5081074;28;20446;-71
2023/03/19 09:07:51;;;;;;;9.57;5.28;;;13.10;96.70;;;;;;5077689;28;20058;-72
2023/03/19 09:10:21;;;;;;;8.93;5.47;;;13.10;96.70;;;;;;5076690;28;20048;-71
2023/03/19 09:12:49;;;;;;;8.75;4.82;;;13.20;96.70;;;;;;5060968;28;20042;-71
2023/03/19 09:15:18;;;;;;;9.93;4.72;;;13.30;96.70;;;;;;5075381;28;20505;-71
2023/03/19 09:17:46;;;;;;;7.25;4.85;;;13.30;96.70;;;;;;5062279;28;20040;-71
2023/03/19 09:20:14;;;;;;;7.40;4.70;;;13.30;96.70;;;;;;5062152;28;20052;-72
2023/03/19 09:22:42;;;;;;;8.65;6.05;;;13.40;96.70;;;;;;5076980;28;20040;-71
2023/03/19 09:25:11;;;;;;;10.27;6.00;;;13.40;96.70;;;;;;5058222;28;20051;-71
2023/03/19 09:27:40;;;;;;;8.93;6.72;;;13.50;96.70;;;;;;5078759;28;20046;-72
2023/03/19 09:30:10;;;;;;;15.82;11.27;;;13.40;96.70;;;;;;5057307;28;20106;-71
2023/03/19 09:32:38;;;;;;;13.90;10.93;;;13.50;96.70;;;;;;5081884;28;20120;-71
2023/03/19 09:35:08;;;;;;;12.82;9.40;;;13.40;96.70;;;;;;5061635;28;20863;-71
2023/03/19 09:37:36;;;;;;;14.25;11.30;;;13.50;96.70;;;;;;5077781;28;20043;-71
2023/03/19 09:40:05;;;;;;;22.20;16.85;;;13.50;96.70;;;;;;5081602;28;20597;-72
2023/03/19 09:42:56;;;;;;;14.07;10.93;;;13.50;96.70;;;;;;5082623;28;20125;-69
2023/03/19 09:45:28;;;;;;;11.85;9.25;;;13.60;96.70;;;;;;5077519;28;20642;-70
2023/03/19 09:48:03;;;;;;;16.20;11.05;;;13.70;96.70;;;;;;5082525;28;20051;-70
2023/03/19 09:50:33;;;;;;;11.85;8.15;;;13.70;96.70;;;;;;5081940;28;20055;-71
2023/03/19 09:53:07;;;;;;;6.85;6.15;;;13.70;96.70;;;;;;5082348;28;20055;-70
2023/03/19 09:55:41;;;;;;;9.70;8.60;;;13.80;96.70;;;;;;5067688;28;20403;-70
2023/03/19 09:58:14;;;;;;;19.98;17.27;;;13.70;96.70;;;;;;5088030;28;20052;-71
2023/03/19 10:00:46;;;;;;;16.60;10.93;;;13.70;96.70;;;;;;5053432;28;20044;-70
2023/03/19 10:03:40;;;;;;;17.25;12.65;;;13.80;96.70;;;;;;5077959;28;20064;-71
2023/03/19 10:06:24;;;;;;;19.30;13.02;;;13.90;96.70;;;;;;5063420;28;20521;-71
2023/03/19 10:09:10;;;;;;;17.08;13.10;;;13.90;96.70;;;;;;5055561;28;20047;-71
2023/03/19 10:11:55;;;;;;;16.05;10.75;;;13.90;96.70;;;;;;5079010;28;20465;-70
2023/03/19 10:14:56;;;;;;;13.15;9.43;;;13.80;96.70;;;;;;5091278;28;20070;-70
2023/03/19 10:17:31;;;;;;;13.18;9.18;;;13.80;96.70;;;;;;5080583;28;20040;-71
2023/03/19 10:20:05;;;;;;;13.75;9.57;;;13.80;96.70;;;;;;5067112;28;20048;-72
2023/03/19 10:22:38;;;;;;;13.32;9.57;;;13.80;96.70;;;;;;5051692;28;20055;-70
2023/03/19 10:25:12;;;;;;;14.35;9.32;;;13.80;96.70;;;;;;5067024;28;20056;-70
2023/03/19 10:27:42;;;;;;;11.75;8.73;;;13.80;96.70;;;;;;5063930;28;20040;-70
2023/03/19 10:30:18;;;;;;;13.88;9.27;;;13.70;96.70;;;;;;5062067;28;20041;-71
2023/03/19 10:32:52;;;;;;;11.48;8.68;;;13.70;96.70;;;;;;5069413;28;20059;-71
2023/03/19 10:35:26;;;;;;;12.30;8.27;;;13.70;96.70;;;;;;5072813;28;20062;-70
2023/03/19 10:37:54;;;;;;;12.10;8.77;;;13.70;96.70;;;;;;5071649;28;20098;-70
2023/03/19 10:40:29;;;;;;;9.35;6.75;;;13.80;96.70;;;;;;5058195;28;20516;-71
2023/03/19 10:43:12;;;;;;;9.07;6.90;;;13.80;96.70;;;;;;5068261;28;20906;-70
2023/03/19 10:45:42;;;;;;;11.05;7.90;;;13.90;96.70;;;;;;5063580;28;20390;-70
2023/03/19 10:48:15;;;;;;;10.48;7.95;;;14.00;96.70;;;;;;5068862;28;20040;-70
2023/03/19 10:50:48;;;;;;;28.17;22.88;;;14.10;96.70;;;;;;5062646;28;20070;-70
2023/03/19 10:53:31;;;;;;;14.40;9.43;;;14.20;96.70;;;;;;5057026;28;20722;-70
2023/03/19 10:56:02;;;;;;;13.43;8.68;;;14.20;96.70;;;;;;5037972;28;20074;-70
2023/03/19 10:58:32;;;;;;;10.50;8.57;;;14.20;96.70;;;;;;5055411;28;20040;-73
2023/03/19 11:01:05;;;;;;;10.07;6.93;;;14.30;96.70;;;;;;5052977;28;21117;-73
2023/03/19 11:03:36;;;;;;;7.93;6.13;;;14.30;96.70;;;;;;5037931;28;20056;-73
2023/03/19 11:06:16;;;;;;;9.30;5.80;;;14.30;96.70;;;;;;5054549;28;20498;-71
2023/03/19 11:08:54;;;;;;;9.18;4.80;;;14.30;96.70;;;;;;5058007;28;20044;-71
2023/03/19 11:11:31;;;;;;;7.22;5.07;;;14.30;96.70;;;;;;5057166;28;20044;-71
2023/03/19 11:14:07;;;;;;;7.97;5.25;;;14.40;96.70;;;;;;5073274;28;20048;-72
2023/03/19 11:16:55;;;;;;;11.23;5.78;;;14.40;96.70;;;;;;5059292;28;20059;-71
2023/03/19 11:19:26;;;;;;;7.68;5.57;;;14.40;96.70;;;;;;5060919;28;20097;-71
2023/03/19 11:22:06;;;;;;;7.10;5.90;;;14.40;96.70;;;;;;5055743;28;20041;-71
2023/03/19 11:24:38;;;;;;;7.38;5.75;;;14.40;96.70;;;;;;5045879;28;20049;-71
2023/03/19 11:27:07;;;;;;;8.82;5.82;;;14.30;96.70;;;;;;5055669;28;20040;-71
2023/03/19 11:29:39;;;;;;;9.15;6.13;;;14.30;96.70;;;;;;5059502;28;20068;-70
2023/03/19 11:32:32;;;;;;;7.47;5.63;;;14.30;96.70;;;;;;5057536;28;20719;-71
2023/03/19 11:35:07;;;;;;;7.70;5.50;;;14.30;96.70;;;;;;5053347;28;20056;-71
2023/03/19 11:37:50;;;;;;;9.20;5.70;;;14.30;96.70;;;;;;5057119;28;20049;-71
2023/03/19 11:40:30;;;;;;;9.07;6.18;;;14.20;96.70;;;;;;5055609;28;20062;-70
2023/03/19 11:43:16;;;;;;;10.00;6.82;;;14.20;96.70;;;;;;5052718;28;20343;-70
2023/03/19 11:45:53;;;;;;;10.32;6.63;;;14.20;96.70;;;;;;5060506;28;20508;-71
2023/03/19 11:48:38;;;;;;;12.13;7.57;;;14.10;96.70;;;;;;5069258;28;20040;-70
2023/03/19 11:51:13;;;;;;;9.25;6.70;;;14.20;96.70;;;;;;5048207;28;20055;-70
2023/03/19 11:53:55;;;;;;;10.23;6.88;;;14.10;96.70;;;;;;5071436;28;20048;-71
2023/03/19 11:56:33;;;;;;;10.75;6.88;;;14.10;96.70;;;;;;5056813;28;20052;-72
2023/03/19 11:59:29;;;;;;;8.60;6.45;;;14.10;96.70;;;;;;5064719;28;20044;-71
2023/03/19 12:02:50;;;;;;;10.13;6.88;;;14.10;96.70;;;;;;5056448;28;20044;-72
2023/03/19 12:05:26;;;;;;;8.80;6.30;;;14.10;96.70;;;;;;5061068;28;20048;-71
2023/03/19 12:08:06;;;;;;;9.57;6.28;;;14.10;96.70;;;;;;5063085;28;20044;-71
2023/03/19 12:10:49;;;;;;;12.90;6.35;;;14.20;96.70;;;;;;5059356;28;20036;-70
2023/03/19 12:13:34;;;;;;;9.38;5.72;;;14.20;96.70;;;;;;5042237;28;20072;-70
2023/03/19 12:16:13;;;;;;;8.88;6.47;;;14.20;96.70;;;;;;5052013;28;20040;-71
2023/03/19 12:19:00;;;;;;;13.63;7.68;;;14.30;96.70;;;;;;5055499;28;20587;-70
2023/03/19 12:21:40;;;;;;;9.40;6.18;;;14.30;96.70;;;;;;5054730;28;20045;-71
2023/03/19 12:24:20;;;;;;;8.85;4.95;;;14.30;96.70;;;;;;5052802;28;20094;-71
2023/03/19 12:26:58;;;;;;;7.47;4.95;;;14.20;96.70;;;;;;5056972;28;20072;-70
2023/03/19 12:29:35;;;;;;;8.32;5.53;;;14.20;96.70;;;;;;5061405;28;20278;-71
2023/03/19 12:32:23;;;;;;;9.23;5.22;;;14.10;96.70;;;;;;5056819;28;20048;-71
2023/03/19 12:34:56;;;;;;;10.95;5.70;;;14.20;96.70;;;;;;5057583;28;20052;-70
2023/03/19 12:37:33;;;;;;;8.15;5.20;;;14.20;96.70;;;;;;5056048;28;20407;-71
2023/03/19 12:40:19;;;;;;;9.35;4.85;;;14.20;96.70;;;;;;5056439;28;20040;-71
2023/03/19 12:42:48;;;;;;;8.35;5.68;;;14.20;96.70;;;;;;5066848;28;20059;-70
2023/03/19 12:45:27;;;;;;;8.93;5.40;;;14.20;96.70;;;;;;5065480;28;20130;-71
2023/03/19 12:48:02;;;;;;;8.30;4.53;;;14.20;96.70;;;;;;5061083;28;20048;-71
2023/03/19 12:50:33;;;;;;;9.55;4.70;;;14.20;96.70;;;;;;5065547;28;20072;-71
2023/03/19 12:53:08;;;;;;;7.70;4.55;;;14.20;96.70;;;;;;5054328;28;20646;-71
2023/03/19 12:55:41;;;;;;;9.90;4.63;;;14.10;96.70;;;;;;5061350;28;20043;-70
2023/03/19 12:58:17;;;;;;;7.72;4.50;;;14.20;96.70;;;;;;5061029;28;20147;-70
2023/03/19 13:00:51;;;;;;;8.70;4.50;;;14.30;96.70;;;;;;5058449;28;20140;-71
2023/03/19 13:03:27;;;;;;;9.63;4.32;;;14.40;96.70;;;;;;5055927;28;20436;-71
2023/03/19 13:06:02;;;;;;;6.95;4.57;;;14.60;96.70;;;;;;5055159;28;20742;-72
2023/03/19 13:08:38;;;;;;;6.43;3.95;;;14.60;96.70;;;;;;5069246;28;20131;-72
2023/03/19 13:11:13;;;;;;;19.63;5.15;;;14.60;96.70;;;;;;5043651;28;20045;-71
2023/03/19 13:13:48;;;;;;;6.28;3.80;;;14.70;96.70;;;;;;5055653;28;20490;-78